createdAt,value
2023-02-24T00:06:14.050Z,65.91
2023-02-24T00:16:14.818Z,65.96
2023-02-24T00:36:16.113Z,67.28
2023-02-24T00:46:16.848Z,68.36
2023-02-24T00:56:17.455Z,69.45
2023-02-24T01:06:18.217Z,70.34
2023-02-24T01:16:18.977Z,70.58
2023-02-24T01:26:19.457Z,71.34
2023-02-24T01:36:20.373Z,71.73
2023-02-24T01:46:20.745Z,72.41
2023-02-24T01:56:21.349Z,73.16
2023-02-24T02:06:22.002Z,73.92
2023-02-24T02:16:22.643Z,74.26
2023-02-24T02:26:23.114Z,74.71
2023-02-24T02:36:23.695Z,74.50
2023-02-24T02:46:24.251Z,75.36
2023-02-24T02:56:24.721Z,75.86
2023-02-24T03:06:25.251Z,75.59
2023-02-24T03:16:25.714Z,75.74
2023-02-24T03:26:26.174Z,75.28
2023-02-24T03:36:26.693Z,75.78
2023-02-24T03:46:27.427Z,74.16
2023-02-24T03:56:27.765Z,75.33
2023-02-24T04:06:28.412Z,74.89
2023-02-24T04:26:29.366Z,75.91
2023-02-24T04:36:29.928Z,76.18
2023-02-24T04:46:30.533Z,75.76
2023-02-24T04:56:31.134Z,76.24
2023-02-24T05:06:31.729Z,77.06
2023-02-24T05:16:32.341Z,76.78
2023-02-24T05:26:32.760Z,75.77
2023-02-24T05:36:33.358Z,75.50
2023-02-24T05:46:33.944Z,75.58
2023-02-24T05:56:34.455Z,77.41
2023-02-24T06:06:35.017Z,77.35
2023-02-24T06:16:36.930Z,77.37
2023-02-24T06:26:36.042Z,77.82
2023-02-24T06:36:36.626Z,77.23
2023-02-24T06:46:37.143Z,78.74
2023-02-24T06:56:37.633Z,80.17
2023-02-24T07:06:38.155Z,79.86
2023-02-24T07:16:38.649Z,80.47
2023-02-24T07:26:39.093Z,81.00
2023-02-24T07:36:39.710Z,80.91
2023-02-24T07:46:40.203Z,81.15
2023-02-24T07:56:40.832Z,80.42
2023-02-24T08:06:41.426Z,80.18
2023-02-24T08:16:42.123Z,80.30
2023-02-24T08:26:42.893Z,80.10
2023-02-24T08:36:43.533Z,78.51
2023-02-24T08:46:44.302Z,77.97
2023-02-24T08:56:44.867Z,78.58
2023-02-24T09:06:45.580Z,73.93
2023-02-24T09:16:46.483Z,67.55
2023-02-24T09:26:47.280Z,66.72
2023-02-24T09:36:48.193Z,63.63
2023-02-24T09:46:49.223Z,61.20
2023-02-24T09:56:50.222Z,61.60
2023-02-24T10:06:51.312Z,63.81
2023-02-24T10:16:52.215Z,66.46
2023-02-24T10:27:00.702Z,66.64
2023-02-24T10:36:53.999Z,64.32
2023-02-24T10:46:54.965Z,65.70
2023-02-24T10:56:55.824Z,67.61
2023-02-24T11:06:56.679Z,68.09
2023-02-24T11:16:57.618Z,67.89
2023-02-24T11:26:58.356Z,66.63
2023-02-24T11:36:59.152Z,63.86
2023-02-24T11:47:00.031Z,63.64
2023-02-24T11:57:00.941Z,62.72
2023-02-24T12:07:01.829Z,62.53
2023-02-24T12:17:02.718Z,62.17
2023-02-24T12:27:03.656Z,62.88
2023-02-24T12:37:04.825Z,62.24
2023-02-24T12:57:06.626Z,62.58
2023-02-24T13:07:07.622Z,61.89
2023-02-24T13:17:12.662Z,62.84
2023-02-24T13:27:09.654Z,62.43
2023-02-24T13:37:10.778Z,62.43
2023-02-24T13:47:11.883Z,62.00
2023-02-24T13:57:12.905Z,61.09
2023-02-24T14:07:13.953Z,60.78
2023-02-24T14:17:15.004Z,60.89
2023-02-24T14:27:17.435Z,58.07
2023-02-24T14:37:17.140Z,56.48
2023-02-24T14:47:18.080Z,57.49
2023-02-24T14:57:19.036Z,56.79
2023-02-24T15:07:20.035Z,56.36
2023-02-24T15:17:21.012Z,56.21
2023-02-24T15:27:24.078Z,56.51
2023-02-24T15:37:25.346Z,56.28
2023-02-24T15:47:24.331Z,56.60
2023-02-24T15:57:25.903Z,56.75
2023-02-24T16:07:26.063Z,57.07
2023-02-24T16:17:27.118Z,57.66
2023-02-24T16:27:28.416Z,57.94
2023-02-24T16:37:29.583Z,58.64
2023-02-24T16:47:30.494Z,59.84
2023-02-24T16:57:31.302Z,61.84
2023-02-24T17:07:32.297Z,62.21
2023-02-24T17:17:33.266Z,62.59
2023-02-24T17:27:34.500Z,63.15
2023-02-24T17:37:35.246Z,62.71
2023-02-24T17:47:36.211Z,61.34
